Time;durP1;ratioP1;P1;durP2;ratioP2;P2;SDS_P1;SDS_P2;PMS_P1;PMS_P2;Temp;Humidity;BMP_temperature;BMP_pressure;BME280_temperature;BME280_humidity;BME280_pressure;Samples;Min_cycle;Max_cycle;Signal;HPM_P1;HPM_P2
2022/12/08 00:01:05;;;;;;;5.63;5.03;;;18.80;38.40;;;;;;6052800;29;20043;-64
2022/12/08 00:04:07;;;;;;;5.20;4.70;;;18.40;38.20;;;;;;6053529;29;20108;-64
2022/12/08 00:10:25;;;;;;;5.07;4.57;;;19.60;38.90;;;;;;6055519;29;20059;-65
2022/12/08 00:13:47;;;;;;;5.35;4.85;;;19.30;38.70;;;;;;6036664;29;20052;-65
2022/12/08 00:16:48;;;;;;;4.88;4.05;;;19.00;38.90;;;;;;6053186;29;20131;-65
2022/12/08 00:19:50;;;;;;;;;;;19.10;38.80;;;;;;6054653;29;20054;-65
2022/12/08 00:22:52;;;;;;;4.90;4.40;;;19.00;39.20;;;;;;6050025;29;19927;-64
2022/12/08 00:25:53;;;;;;;5.60;4.93;;;19.20;39.10;;;;;;6050649;29;20040;-65
2022/12/08 00:28:54;;;;;;;;;;;19.10;38.80;;;;;;6047558;29;20154;-65
2022/12/08 00:31:56;;;;;;;4.82;4.22;;;18.90;39.20;;;;;;6051195;29;19926;-64
2022/12/08 00:34:57;;;;;;;;;;;19.10;38.90;;;;;;6051799;29;20115;-64
2022/12/08 00:37:59;;;;;;;5.25;4.72;;;19.00;39.40;;;;;;6051776;29;19927;-65
2022/12/08 00:41:02;;;;;;;5.28;4.55;;;19.10;39.00;;;;;;6055329;29;20131;-65
2022/12/08 00:44:04;;;;;;;6.60;5.65;;;19.00;38.60;;;;;;6057354;29;20242;-65
2022/12/08 00:47:05;;;;;;;7.13;5.47;;;18.80;39.20;;;;;;6061141;29;20127;-65
2022/12/08 00:50:08;;;;;;;6.22;5.35;;;18.80;38.40;;;;;;6055254;29;20043;-65
2022/12/08 00:53:10;;;;;;;6.85;5.80;;;18.90;38.60;;;;;;6061103;29;20130;-64
2022/12/08 00:56:11;;;;;;;6.47;5.47;;;19.10;38.60;;;;;;6061982;29;20043;-65
2022/12/08 00:59:13;;;;;;;;;;;19.10;38.40;;;;;;6061228;29;20840;-65
2022/12/08 01:02:17;;;;;;;6.75;5.47;;;19.20;38.70;;;;;;6047849;29;19930;-64
2022/12/08 01:05:18;;;;;;;6.47;5.53;;;18.70;38.60;;;;;;6056355;29;20047;-64
2022/12/08 01:08:20;;;;;;;6.75;6.03;;;19.20;38.40;;;;;;6058008;29;20071;-65
2022/12/08 01:11:22;;;;;;;6.97;6.03;;;19.20;38.40;;;;;;6056666;29;20051;-64
2022/12/08 01:14:23;;;;;;;6.85;5.82;;;19.00;37.90;;;;;;6058712;29;20043;-65
2022/12/08 01:17:26;;;;;;;6.50;5.80;;;18.90;38.00;;;;;;6060231;29;20886;-64
2022/12/08 01:20:27;;;;;;;6.15;5.55;;;19.00;38.00;;;;;;6060426;29;20054;-64
2022/12/08 01:23:29;;;;;;;;;;;18.90;37.50;;;;;;6056336;29;20079;-64
2022/12/08 01:26:31;;;;;;;6.90;5.57;;;19.10;38.00;;;;;;6060530;29;19993;-63
2022/12/08 01:29:33;;;;;;;5.60;5.07;;;18.90;37.60;;;;;;6060516;29;20075;-63
2022/12/08 01:32:34;;;;;;;5.80;5.28;;;18.90;37.40;;;;;;6060150;29;20669;-64
2022/12/08 01:35:36;;;;;;;5.72;5.13;;;18.80;37.30;;;;;;6041436;29;20119;-63
2022/12/08 01:38:38;;;;;;;5.78;5.18;;;18.90;37.40;;;;;;6058843;29;21029;-63
2022/12/08 01:41:42;;;;;;;5.50;4.90;;;19.00;37.40;;;;;;6055365;29;20098;-63
2022/12/08 01:44:53;;;;;;;5.72;5.15;;;19.10;37.40;;;;;;6059092;29;20853;-64
2022/12/08 01:47:58;;;;;;;5.70;5.10;;;19.00;37.20;;;;;;6057712;29;20039;-63
2022/12/08 01:51:00;;;;;;;5.93;5.28;;;18.70;37.20;;;;;;6058080;29;20040;-63
2022/12/08 01:54:04;;;;;;;5.75;4.53;;;18.90;37.40;;;;;;6061359;29;20048;-63
2022/12/08 01:57:09;;;;;;;5.65;4.93;;;19.00;37.50;;;;;;6058440;29;20063;-64
2022/12/08 02:00:13;;;;;;;6.50;5.30;;;18.80;37.40;;;;;;6046754;29;20179;-63
2022/12/08 02:03:20;;;;;;;5.07;4.57;;;18.60;37.40;;;;;;6031757;29;20593;-64
2022/12/08 02:06:23;;;;;;;5.80;4.90;;;18.90;37.60;;;;;;6045342;29;20109;-64
2022/12/08 02:09:25;;;;;;;6.43;5.30;;;18.90;37.60;;;;;;6048223;29;20040;-63
2022/12/08 02:12:26;;;;;;;5.07;4.55;;;18.80;37.80;;;;;;6054169;29;20151;-63
2022/12/08 02:15:31;;;;;;;;;;;18.60;37.50;;;;;;6053145;29;20058;-63
2022/12/08 02:18:52;;;;;;;6.75;5.10;;;18.90;38.10;;;;;;6040150;29;20397;-63
2022/12/08 02:22:19;;;;;;;5.18;4.43;;;18.90;38.00;;;;;;6041072;29;21220;-64
2022/12/08 02:25:30;;;;;;;6.22;5.00;;;19.00;38.00;;;;;;6034220;29;20616;-63
2022/12/08 02:28:49;;;;;;;5.43;4.57;;;18.80;38.00;;;;;;6053041;29;20044;-63
2022/12/08 02:32:02;;;;;;;5.90;5.30;;;18.90;37.80;;;;;;6053673;29;20206;-63
2022/12/08 02:35:09;;;;;;;5.43;4.90;;;18.50;37.60;;;;;;6055259;29;20043;-64
2022/12/08 02:38:18;;;;;;;5.70;5.10;;;18.60;37.60;;;;;;6056310;29;20148;-63
2022/12/08 02:41:30;;;;;;;6.72;5.25;;;19.10;37.90;;;;;;6049684;29;20058;-63
2022/12/08 02:44:37;;;;;;;6.10;5.43;;;18.80;37.70;;;;;;6054110;29;20146;-64
2022/12/08 02:47:40;;;;;;;6.00;5.40;;;18.90;37.70;;;;;;6054679;29;20047;-63
2022/12/08 02:50:42;;;;;;;5.40;4.70;;;18.70;37.60;;;;;;6053958;29;20431;-63
2022/12/08 02:53:44;;;;;;;5.30;4.80;;;19.00;37.80;;;;;;6054890;29;20058;-64
2022/12/08 02:57:03;;;;;;;5.35;4.85;;;19.00;37.70;;;;;;6054759;29;20051;-63
2022/12/08 03:00:08;;;;;;;5.75;4.78;;;18.40;37.40;;;;;;6049601;29;20457;-63
2022/12/08 03:03:18;;;;;;;5.00;4.50;;;18.50;37.40;;;;;;6055617;29;20162;-63
2022/12/08 03:06:29;;;;;;;5.13;4.60;;;19.00;37.60;;;;;;6055932;29;20066;-63
2022/12/08 03:09:37;;;;;;;4.70;4.13;;;18.80;37.40;;;;;;6056014;29;20556;-64
2022/12/08 03:12:43;;;;;;;4.40;3.92;;;18.70;37.40;;;;;;6057129;29;20113;-63
2022/12/08 03:15:48;;;;;;;4.93;4.28;;;18.40;37.90;;;;;;6037766;29;20044;-63
2022/12/08 03:18:56;;;;;;;4.70;4.22;;;19.00;37.60;;;;;;6042327;29;20056;-63
2022/12/08 03:22:02;;;;;;;4.75;4.28;;;18.40;37.30;;;;;;6052328;29;20437;-63
2022/12/08 03:25:05;;;;;;;3.85;3.47;;;18.50;37.40;;;;;;6042724;29;20259;-63
2022/12/08 03:28:07;;;;;;;4.22;3.83;;;19.00;37.60;;;;;;6055200;29;20047;-63
2022/12/08 03:31:12;;;;;;;4.38;3.97;;;18.80;37.60;;;;;;6051091;29;20051;-63
2022/12/08 03:34:14;;;;;;;3.97;3.58;;;19.00;37.70;;;;;;6047809;29;20052;-63
2022/12/08 03:37:16;;;;;;;3.88;3.47;;;18.70;37.50;;;;;;6053181;29;20163;-63
2022/12/08 03:40:19;;;;;;;4.15;3.75;;;19.00;37.70;;;;;;6054194;29;20047;-63
2022/12/08 03:43:21;;;;;;;4.03;3.60;;;18.40;37.40;;;;;;6051644;29;20541;-63
2022/12/08 03:46:24;;;;;;;3.42;3.00;;;19.00;37.70;;;;;;6054672;29;20421;-63
2022/12/08 03:49:25;;;;;;;3.67;3.30;;;18.80;37.60;;;;;;6034900;29;20047;-63
2022/12/08 03:52:27;;;;;;;3.78;3.47;;;18.90;37.70;;;;;;6038190;29;20408;-63
2022/12/08 03:55:29;;;;;;;3.08;2.78;;;18.80;37.70;;;;;;6055004;29;20210;-63
2022/12/08 03:58:30;;;;;;;;;;;18.90;37.70;;;;;;6054104;29;20139;-63
2022/12/08 04:01:38;;;;;;;3.28;2.97;;;19.00;38.10;;;;;;6054293;29;19973;-64
2022/12/08 04:04:39;;;;;;;3.13;2.78;;;18.90;37.70;;;;;;6050303;29;20040;-63
2022/12/08 04:07:42;;;;;;;3.97;2.90;;;18.80;37.70;;;;;;6051641;29;20054;-64
2022/12/08 04:10:44;;;;;;;3.55;3.13;;;18.90;37.80;;;;;;6052923;29;20044;-64
2022/12/08 04:13:46;;;;;;;3.75;3.45;;;18.90;37.70;;;;;;6053180;29;20606;-63
2022/12/08 04:16:47;;;;;;;4.00;3.70;;;18.70;37.50;;;;;;6041261;29;20172;-63
2022/12/08 04:19:49;;;;;;;4.45;4.05;;;18.80;37.50;;;;;;6046481;29;20039;-63
2022/12/08 04:22:51;;;;;;;4.72;3.83;;;18.90;37.70;;;;;;6062904;29;20600;-64
2022/12/08 04:25:52;;;;;;;4.63;4.18;;;18.90;37.60;;;;;;6062520;29;20044;-64
2022/12/08 04:28:54;;;;;;;7.38;5.20;;;18.40;37.40;;;;;;6065276;29;20072;-63
2022/12/08 04:31:55;;;;;;;4.75;4.25;;;19.00;37.70;;;;;;6064657;29;20044;-64
2022/12/08 04:34:57;;;;;;;5.50;4.43;;;18.80;37.50;;;;;;6061522;29;20050;-64
2022/12/08 04:37:59;;;;;;;5.78;4.80;;;18.70;37.40;;;;;;6053519;29;20039;-64
2022/12/08 04:41:01;;;;;;;5.45;4.50;;;18.90;37.40;;;;;;6061272;29;20043;-63
2022/12/08 04:44:02;;;;;;;;;;;18.80;37.20;;;;;;6058904;29;20250;-64
2022/12/08 04:47:03;;;;;;;6.35;4.93;;;18.50;37.50;;;;;;6063733;29;19977;-64
2022/12/08 04:50:07;;;;;;;5.75;4.80;;;18.90;37.30;;;;;;6056220;29;20035;-63
2022/12/08 04:53:10;;;;;;;5.60;4.80;;;18.90;37.20;;;;;;6026408;29;20175;-64
2022/12/08 04:56:13;;;;;;;5.63;5.13;;;18.90;37.10;;;;;;6049162;29;20042;-63
2022/12/08 04:59:15;;;;;;;5.28;4.78;;;18.90;37.00;;;;;;6021827;29;21547;-64
2022/12/08 05:02:16;;;;;;;6.00;5.25;;;18.70;36.90;;;;;;6049979;29;20339;-63
2022/12/08 05:05:18;;;;;;;;;;;18.80;37.00;;;;;;6053090;29;20043;-64
2022/12/08 05:08:20;;;;;;;5.47;4.50;;;18.80;37.50;;;;;;6049177;29;20196;-64
2022/12/08 05:11:21;;;;;;;5.93;4.93;;;19.00;37.20;;;;;;6047717;29;20902;-63
2022/12/08 05:14:23;;;;;;;5.40;4.90;;;18.60;36.90;;;;;;6043076;29;20072;-63
2022/12/08 05:17:24;;;;;;;;;;;18.80;36.90;;;;;;6049955;29;20882;-63
2022/12/08 05:20:26;;;;;;;4.32;3.90;;;18.80;36.80;;;;;;6053402;29;20825;-64
2022/12/08 05:23:28;;;;;;;5.75;4.80;;;18.60;36.90;;;;;;6048869;29;20463;-64
2022/12/08 05:26:29;;;;;;;5.15;4.60;;;18.90;37.00;;;;;;6055653;29;20775;-64
2022/12/08 05:29:31;;;;;;;5.25;4.75;;;18.50;36.80;;;;;;6044623;29;20149;-64
2022/12/08 05:32:32;;;;;;;5.32;4.18;;;19.00;37.00;;;;;;6057980;29;20788;-63
2022/12/08 05:35:34;;;;;;;5.72;4.72;;;19.00;37.00;;;;;;6062675;29;20063;-64
2022/12/08 05:38:36;;;;;;;5.03;4.53;;;18.40;36.60;;;;;;6057371;29;20125;-64
2022/12/08 05:41:38;;;;;;;5.30;4.57;;;18.90;37.00;;;;;;6055049;29;20155;-65
2022/12/08 05:44:39;;;;;;;4.78;4.28;;;18.90;36.80;;;;;;6058190;29;20228;-63
2022/12/08 05:47:41;;;;;;;5.65;4.72;;;18.60;36.70;;;;;;6047951;29;21414;-63
2022/12/08 05:50:45;;;;;;;4.53;4.13;;;18.50;36.50;;;;;;6062009;29;20147;-64
2022/12/08 05:53:48;;;;;;;4.72;4.10;;;18.90;36.70;;;;;;6044928;29;20048;-64
2022/12/08 05:56:50;;;;;;;4.70;4.10;;;18.60;36.60;;;;;;6063498;29;20910;-63
2022/12/08 05:59:51;;;;;;;;;;;18.80;36.90;;;;;;6064348;29;21048;-64
2022/12/08 06:02:53;;;;;;;4.18;3.78;;;18.80;37.30;;;;;;6054628;29;20061;-64
2022/12/08 06:05:54;;;;;;;;;;;18.50;36.90;;;;;;6048979;29;20369;-64
2022/12/08 06:08:56;;;;;;;4.07;3.45;;;18.40;37.10;;;;;;6047151;29;20007;-64
2022/12/08 06:11:58;;;;;;;4.28;3.80;;;19.00;37.20;;;;;;6049377;29;21653;-63
2022/12/08 06:14:59;;;;;;;4.10;3.70;;;18.80;37.20;;;;;;6047044;29;20162;-64
2022/12/08 06:18:01;;;;;;;;;;;18.80;37.20;;;;;;6046178;29;20116;-64
2022/12/08 06:21:03;;;;;;;3.53;3.20;;;18.80;37.60;;;;;;6040784;29;19931;-64
2022/12/08 06:24:05;;;;;;;3.45;3.15;;;18.90;37.40;;;;;;6046737;29;21343;-63
2022/12/08 06:27:07;;;;;;;4.03;3.13;;;18.70;37.30;;;;;;6048109;29;20043;-63
2022/12/08 06:30:08;;;;;;;;;;;18.70;37.50;;;;;;6039019;29;21504;-63
2022/12/08 06:33:10;;;;;;;3.80;2.88;;;18.70;37.90;;;;;;6048689;29;19942;-63
2022/12/08 06:36:13;;;;;;;3.85;3.45;;;18.90;37.70;;;;;;6051075;29;20398;-63
2022/12/08 06:39:15;;;;;;;3.88;3.47;;;18.70;37.60;;;;;;6053567;29;20333;-64
2022/12/08 06:45:29;;;;;;;4.00;3.40;;;18.90;37.90;;;;;;6060232;29;20043;-63
2022/12/08 06:48:31;;;;;;;3.70;2.83;;;18.70;38.00;;;;;;6058638;29;20047;-64
2022/12/08 06:51:32;;;;;;;3.65;3.17;;;18.60;37.60;;;;;;6052328;29;20114;-63
2022/12/08 06:54:34;;;;;;;4.13;3.30;;;18.60;38.00;;;;;;6054159;29;20105;-63
2022/12/08 06:57:36;;;;;;;3.35;2.90;;;18.40;38.10;;;;;;6049771;29;20154;-63
2022/12/08 07:00:37;;;;;;;;;;;18.60;38.00;;;;;;6049934;29;20150;-63
2022/12/08 07:03:39;;;;;;;3.38;3.08;;;18.80;38.30;;;;;;6048624;29;19931;-63
2022/12/08 07:06:41;;;;;;;3.42;2.78;;;18.60;38.00;;;;;;6047818;29;20143;-64
2022/12/08 07:09:43;;;;;;;2.90;2.50;;;18.40;38.00;;;;;;6048803;29;20048;-64
2022/12/08 07:12:44;;;;;;;3.10;2.78;;;18.90;38.40;;;;;;6028802;29;20050;-61
2022/12/08 07:15:46;;;;;;;2.70;2.50;;;18.90;37.90;;;;;;6031674;29;20155;-61
2022/12/08 07:18:47;;;;;;;2.47;2.20;;;19.00;38.10;;;;;;6032086;29;20115;-62
2022/12/08 07:21:49;;;;;;;;;;;18.50;37.30;;;;;;6014900;29;21188;-62
2022/12/08 07:24:51;;;;;;;2.17;1.98;;;19.20;38.20;;;;;;6010001;29;21566;-61
2022/12/08 07:27:52;;;;;;;2.80;2.08;;;19.00;37.60;;;;;;6006283;29;20060;-61
2022/12/08 07:30:54;;;;;;;;;;;19.20;37.60;;;;;;5999807;29;20169;-60
2022/12/08 07:33:56;;;;;;;2.03;1.83;;;19.20;37.60;;;;;;5968882;29;19930;-61
2022/12/08 07:36:58;;;;;;;1.77;1.58;;;19.30;37.20;;;;;;6011006;29;22702;-62
2022/12/08 07:40:01;;;;;;;2.13;1.92;;;19.00;36.90;;;;;;5997443;29;20055;-62
2022/12/08 07:43:03;;;;;;;2.08;1.88;;;18.90;37.10;;;;;;5970275;29;20047;-59
2022/12/08 07:46:05;;;;;;;1.80;1.60;;;19.50;35.10;;;;;;5988051;29;20042;-61
2022/12/08 07:49:07;;;;;;;2.67;1.92;;;19.10;36.80;;;;;;5963013;29;20259;-64
2022/12/08 07:52:08;;;;;;;;;;;19.30;36.80;;;;;;5947064;29;20041;-60
2022/12/08 07:55:10;;;;;;;1.65;1.50;;;19.80;38.00;;;;;;5944574;29;19931;-64
2022/12/08 07:58:11;;;;;;;1.65;1.50;;;19.60;37.40;;;;;;5943631;29;21577;-62
2022/12/08 08:01:21;;;;;;;;;;;19.20;38.30;;;;;;5904402;29;20058;-64
2022/12/08 08:04:23;;;;;;;1.73;1.42;;;19.50;38.20;;;;;;5891306;29;22525;-64
2022/12/08 08:07:24;;;;;;;1.55;1.38;;;19.90;38.10;;;;;;5842185;29;20044;-63
2022/12/08 08:10:27;;;;;;;1.30;1.20;;;19.70;37.40;;;;;;5839334;29;20054;-62
2022/12/08 08:13:29;;;;;;;1.75;1.55;;;19.40;37.50;;;;;;5813249;29;20039;-62
2022/12/08 08:16:32;;;;;;;1.77;1.50;;;19.70;37.20;;;;;;5813904;29;20150;-61
2022/12/08 08:19:41;;;;;;;1.48;1.30;;;19.40;38.10;;;;;;5799030;29;20158;-62
2022/12/08 08:22:44;;;;;;;2.03;1.33;;;20.00;37.70;;;;;;5980869;29;20047;-61
2022/12/08 08:25:49;;;;;;;1.35;1.25;;;20.20;37.40;;;;;;5972531;29;21351;-63
2022/12/08 08:28:51;;;;;;;1.55;1.38;;;19.70;37.80;;;;;;5890389;29;20174;-62
2022/12/08 08:31:54;;;;;;;1.20;1.10;;;19.50;38.00;;;;;;5760760;29;21616;-63
2022/12/08 08:34:56;;;;;;;1.60;1.10;;;19.80;38.10;;;;;;5822061;29;22835;-63
2022/12/08 08:38:00;;;;;;;1.20;1.10;;;20.00;38.50;;;;;;5785667;29;20055;-62
2022/12/08 08:41:07;;;;;;;1.40;1.20;;;20.00;38.10;;;;;;5763483;29;20146;-64
2022/12/08 08:44:13;;;;;;;2.28;1.25;;;19.90;38.40;;;;;;5810933;29;20043;-65
2022/12/08 08:47:14;;;;;;;1.17;1.08;;;19.70;38.20;;;;;;5824556;29;20044;-66
2022/12/08 08:50:18;;;;;;;0.90;0.80;;;19.60;38.10;;;;;;5824352;29;20052;-64
2022/12/08 08:53:22;;;;;;;1.10;0.93;;;20.00;37.90;;;;;;5812959;29;32385;-63
2022/12/08 08:56:25;;;;;;;1.10;1.00;;;20.10;38.20;;;;;;5845276;29;21035;-63
2022/12/08 08:59:28;;;;;;;1.17;0.90;;;19.90;38.00;;;;;;5818649;29;20040;-66
2022/12/08 09:02:30;;;;;;;1.08;0.98;;;19.60;37.90;;;;;;5752992;29;20051;-66
2022/12/08 09:05:31;;;;;;;;;;;19.80;37.80;;;;;;5763209;29;20048;-64
2022/12/08 09:08:34;;;;;;;0.90;0.85;;;19.90;38.30;;;;;;5789127;29;19931;-65
2022/12/08 09:11:41;;;;;;;1.10;1.00;;;20.00;38.00;;;;;;5806840;29;20048;-65
2022/12/08 09:14:44;;;;;;;1.77;0.93;;;20.00;37.90;;;;;;5788377;29;20062;-66
2022/12/08 09:17:46;;;;;;;1.20;0.98;;;20.00;38.40;;;;;;5787038;29;21219;-65
2022/12/08 09:20:47;;;;;;;0.80;0.80;;;20.00;38.80;;;;;;5819575;29;21691;-65
2022/12/08 09:23:52;;;;;;;0.75;0.75;;;20.10;38.80;;;;;;5826448;29;20051;-65
2022/12/08 09:26:56;;;;;;;0.80;0.80;;;20.20;38.50;;;;;;5814868;29;20044;-67
2022/12/08 09:30:00;;;;;;;1.25;0.90;;;20.10;36.40;;;;;;5833328;29;20086;-66
2022/12/08 09:33:02;;;;;;;;;;;20.30;38.30;;;;;;5824424;29;21210;-66
2022/12/08 09:36:05;;;;;;;0.80;0.80;;;20.80;38.60;;;;;;5821168;29;19931;-64
2022/12/08 09:39:08;;;;;;;1.35;1.20;;;20.40;38.30;;;;;;5820088;29;24867;-65
2022/12/08 09:42:10;;;;;;;;;;;19.80;37.80;;;;;;5824795;29;20044;-64
2022/12/08 09:45:15;;;;;;;1.35;1.10;;;20.70;38.40;;;;;;5825060;29;19931;-65
2022/12/08 09:48:21;;;;;;;1.50;1.30;;;20.40;37.70;;;;;;5844869;29;20051;-66
2022/12/08 09:51:24;;;;;;;1.30;1.10;;;20.40;37.60;;;;;;5809417;29;22498;-67
2022/12/08 09:54:32;;;;;;;1.38;1.27;;;20.60;37.70;;;;;;5838673;29;22627;-65
2022/12/08 09:57:35;;;;;;;1.77;1.40;;;19.60;37.00;;;;;;5848969;29;20039;-64
2022/12/08 10:00:37;;;;;;;1.70;1.58;;;20.30;37.20;;;;;;5789519;29;20381;-65
2022/12/08 10:03:40;;;;;;;2.40;2.00;;;20.70;37.60;;;;;;5826638;28;20044;-66
2022/12/08 10:06:48;;;;;;;2.20;1.90;;;20.70;37.20;;;;;;5780725;29;21435;-65
2022/12/08 10:09:57;;;;;;;1.42;1.33;;;20.80;37.00;;;;;;5778368;29;20049;-64
2022/12/08 10:13:07;;;;;;;1.70;1.30;;;20.80;37.10;;;;;;5807014;29;21779;-65
2022/12/08 10:16:18;;;;;;;1.30;1.20;;;20.70;36.80;;;;;;5821531;29;20123;-64
2022/12/08 10:19:27;;;;;;;1.58;1.38;;;20.90;36.80;;;;;;5744384;29;22526;-66
2022/12/08 10:22:33;;;;;;;1.48;0.98;;;20.80;37.10;;;;;;5806096;29;20048;-66
2022/12/08 10:25:40;;;;;;;1.40;1.13;;;20.80;36.80;;;;;;5710351;29;20060;-67
2022/12/08 10:28:42;;;;;;;1.25;1.10;;;21.00;36.80;;;;;;5774774;29;20054;-64
2022/12/08 10:31:46;;;;;;;1.17;1.00;;;20.60;36.50;;;;;;5794449;29;20259;-65
2022/12/08 10:35:00;;;;;;;1.35;1.00;;;20.70;36.90;;;;;;5801739;29;20094;-64
2022/12/08 10:38:05;;;;;;;1.13;0.80;;;20.90;36.90;;;;;;5780512;29;20893;-63
2022/12/08 10:41:12;;;;;;;0.90;0.70;;;21.00;36.80;;;;;;5781062;29;20059;-65
2022/12/08 10:44:16;;;;;;;1.25;1.15;;;21.00;37.00;;;;;;5758970;29;20055;-65
2022/12/08 10:47:20;;;;;;;0.98;0.88;;;21.10;37.10;;;;;;5792522;29;21771;-67
2022/12/08 10:50:26;;;;;;;1.15;1.00;;;21.10;37.20;;;;;;5788108;29;21590;-65
2022/12/08 10:53:31;;;;;;;1.10;1.00;;;21.10;37.20;;;;;;5763105;29;20058;-65
2022/12/08 10:56:32;;;;;;;2.40;1.20;;;21.10;37.20;;;;;;5795629;29;20036;-65
2022/12/08 10:59:35;;;;;;;1.58;1.05;;;21.20;37.00;;;;;;5808614;29;20102;-65
2022/12/08 11:02:48;;;;;;;1.02;0.93;;;21.10;36.90;;;;;;5784996;29;21440;-63
2022/12/08 11:05:54;;;;;;;1.63;1.20;;;21.30;37.00;;;;;;5819386;29;20044;-65
2022/12/08 11:08:58;;;;;;;1.15;0.93;;;20.90;36.80;;;;;;5792004;29;20047;-66
2022/12/08 11:12:06;;;;;;;1.20;1.10;;;21.10;36.70;;;;;;5798548;29;20068;-64
2022/12/08 11:15:14;;;;;;;1.33;1.23;;;21.20;36.60;;;;;;5829763;29;20140;-67
2022/12/08 11:18:25;;;;;;;1.75;1.30;;;20.90;36.90;;;;;;5804421;29;20047;-65
2022/12/08 11:21:35;;;;;;;1.10;1.00;;;20.90;36.50;;;;;;5801464;29;20044;-63
2022/12/08 11:24:37;;;;;;;1.20;1.00;;;21.30;36.80;;;;;;5864020;29;20303;-65
2022/12/08 11:27:42;;;;;;;1.20;1.10;;;21.30;36.80;;;;;;5860025;29;20039;-68
2022/12/08 11:30:49;;;;;;;1.45;1.20;;;21.10;36.60;;;;;;5837137;29;22387;-67
2022/12/08 11:33:51;;;;;;;1.30;1.20;;;20.90;36.90;;;;;;5859584;29;20044;-65
2022/12/08 11:36:55;;;;;;;1.40;1.20;;;21.10;36.40;;;;;;5869564;29;20054;-64
2022/12/08 11:39:59;;;;;;;1.50;1.10;;;21.10;36.40;;;;;;5864739;29;21488;-65
2022/12/08 11:43:08;;;;;;;1.13;1.02;;;20.50;36.00;;;;;;5859819;29;21014;-64
2022/12/08 11:46:15;;;;;;;1.52;1.10;;;21.50;36.60;;;;;;5882620;29;20552;-65
2022/12/08 11:49:18;;;;;;;1.10;1.00;;;21.50;36.60;;;;;;5868880;29;20048;-64
2022/12/08 11:52:27;;;;;;;1.10;1.00;;;20.90;53.30;;;;;;5905457;29;20052;-65
2022/12/08 11:55:33;;;;;;;1.40;1.17;;;21.30;36.60;;;;;;5911207;29;20256;-65
2022/12/08 11:58:44;;;;;;;1.30;1.05;;;21.10;36.50;;;;;;5915890;29;20071;-65
2022/12/08 12:01:45;;;;;;;1.13;1.02;;;20.50;36.40;;;;;;5918201;29;20059;-65
2022/12/08 12:04:52;;;;;;;1.35;1.20;;;21.20;36.70;;;;;;5915898;29;20059;-65
2022/12/08 12:08:10;;;;;;;1.20;1.00;;;21.10;36.50;;;;;;5907669;29;20066;-64
2022/12/08 12:14:54;;;;;;;1.10;1.00;;;21.10;36.90;;;;;;5903972;29;20060;-64
2022/12/08 12:18:01;;;;;;;1.35;1.20;;;21.20;36.70;;;;;;5924363;29;20052;-64
2022/12/08 12:21:10;;;;;;;1.20;1.05;;;20.80;36.60;;;;;;5895751;29;20058;-65
2022/12/08 12:24:17;;;;;;;1.38;1.13;;;22.80;37.90;;;;;;5916415;29;22198;-65
2022/12/08 12:27:30;;;;;;;1.35;1.13;;;21.10;37.00;;;;;;5916359;29;20063;-66
2022/12/08 12:30:49;;;;;;;1.60;1.08;;;21.10;37.10;;;;;;5888458;29;23136;-69
2022/12/08 12:33:54;;;;;;;1.75;1.05;;;20.80;37.10;;;;;;5870450;29;20054;-65
2022/12/08 12:36:58;;;;;;;1.30;0.90;;;20.50;36.90;;;;;;5873184;29;20118;-65
2022/12/08 12:40:02;;;;;;;1.15;1.05;;;21.00;37.40;;;;;;5886428;29;20059;-65
2022/12/08 12:43:23;;;;;;;1.20;1.10;;;21.00;37.50;;;;;;5844714;29;20178;-65
2022/12/08 12:46:40;;;;;;;1.15;1.05;;;20.40;37.40;;;;;;5870507;29;20052;-65
2022/12/08 12:50:06;;;;;;;2.00;0.90;;;20.80;37.70;;;;;;5859509;29;20171;-69
2022/12/08 12:53:38;;;;;;;0.98;0.90;;;21.00;38.10;;;;;;5785833;29;42767;-64
2022/12/08 12:56:52;;;;;;;1.30;1.00;;;21.00;38.20;;;;;;5829224;29;20266;-64
2022/12/08 13:00:08;;;;;;;1.30;1.20;;;20.60;38.10;;;;;;5787153;29;21789;-66
2022/12/08 13:03:13;;;;;;;1.05;0.88;;;20.80;38.30;;;;;;5774202;29;20054;-64
2022/12/08 13:06:21;;;;;;;1.27;1.00;;;21.20;39.40;;;;;;5815803;29;24122;-65
2022/12/08 13:09:31;;;;;;;1.13;0.90;;;21.10;38.50;;;;;;5797699;29;20044;-66
2022/12/08 13:12:33;;;;;;;0.93;0.80;;;20.70;37.90;;;;;;5826614;29;20043;-65
2022/12/08 13:15:36;;;;;;;;;;;21.00;38.20;;;;;;5832494;28;20142;-68
2022/12/08 13:18:41;;;;;;;1.00;0.90;;;21.70;39.30;;;;;;5783891;29;20038;-64
2022/12/08 13:21:43;;;;;;;1.15;1.00;;;21.20;38.60;;;;;;5785894;29;20044;-62
2022/12/08 13:24:45;;;;;;;1.10;1.00;;;21.10;38.80;;;;;;5840095;29;20052;-65
2022/12/08 13:27:51;;;;;;;;;;;21.30;38.60;;;;;;5864072;28;20040;-64
2022/12/08 13:30:55;;;;;;;0.95;0.80;;;21.20;39.00;;;;;;6021578;23;20331;-65
2022/12/08 13:33:57;;;;;;;1.00;0.90;;;21.10;38.40;;;;;;5869390;28;20051;-64
2022/12/08 13:40:37;;;;;;;1.17;1.00;;;21.10;38.60;;;;;;6418052;23;20058;-63
2022/12/08 13:43:47;;;;;;;1.27;1.13;;;20.90;55.40;;;;;;6553828;23;20093;-65
2022/12/08 13:47:12;;;;;;;1.40;1.13;;;21.10;38.40;;;;;;6250291;23;20078;-63
2022/12/08 13:50:39;;;;;;;1.63;1.20;;;21.20;38.30;;;;;;5787931;28;20162;-63
2022/12/08 13:54:05;;;;;;;1.15;1.00;;;21.20;38.30;;;;;;5807914;28;20456;-63
2022/12/08 13:57:30;;;;;;;1.35;1.00;;;21.30;38.20;;;;;;5763444;28;23826;-65
2022/12/08 14:00:34;;;;;;;1.25;1.08;;;20.80;38.10;;;;;;5704528;28;21156;-64
2022/12/08 14:03:49;;;;;;;0.77;0.70;;;21.00;38.40;;;;;;5719681;28;27286;-66
2022/12/08 14:07:11;;;;;;;1.02;0.80;;;20.70;37.70;;;;;;5595008;29;20047;-64
2022/12/08 14:10:18;;;;;;;1.20;0.80;;;21.30;37.90;;;;;;5683979;29;20052;-63
2022/12/08 14:13:20;;;;;;;0.90;0.80;;;21.30;37.90;;;;;;5659187;29;21384;-65
2022/12/08 14:16:27;;;;;;;1.13;0.90;;;21.20;38.00;;;;;;5724080;29;20142;-64
2022/12/08 14:19:32;;;;;;;0.68;0.60;;;21.20;38.10;;;;;;5745408;29;20047;-64
2022/12/08 14:22:35;;;;;;;1.10;0.85;;;20.80;38.10;;;;;;6079583;23;20177;-63
2022/12/08 14:25:37;;;;;;;1.45;0.93;;;21.30;38.40;;;;;;5772226;28;20181;-66
2022/12/08 14:28:40;;;;;;;1.02;0.95;;;20.80;38.20;;;;;;5798913;28;20385;-65
2022/12/08 14:31:46;;;;;;;1.02;0.90;;;20.50;38.10;;;;;;5765890;28;32861;-65
2022/12/08 14:34:56;;;;;;;;;;;21.20;38.40;;;;;;5773324;28;22948;-65
2022/12/08 14:38:00;;;;;;;0.98;0.88;;;21.30;38.60;;;;;;5760005;28;19960;-65
2022/12/08 14:41:05;;;;;;;0.90;0.77;;;21.30;38.40;;;;;;5749966;28;20047;-65
2022/12/08 14:44:22;;;;;;;1.05;0.90;;;21.50;38.50;;;;;;5767584;28;20619;-63
2022/12/08 14:47:28;;;;;;;1.38;0.80;;;21.40;38.50;;;;;;5785039;28;21177;-63
2022/12/08 14:50:38;;;;;;;1.05;0.70;;;21.00;38.20;;;;;;5773257;28;20046;-64
2022/12/08 14:53:43;;;;;;;0.90;0.90;;;21.20;38.20;;;;;;5786801;28;20048;-65
2022/12/08 14:56:50;;;;;;;1.10;0.90;;;21.50;38.30;;;;;;5794229;28;21867;-65
2022/12/08 14:59:52;;;;;;;0.82;0.82;;;21.00;38.80;;;;;;5772473;28;22098;-66
2022/12/08 15:02:55;;;;;;;1.00;0.80;;;21.40;38.60;;;;;;5773731;28;23932;-65
2022/12/08 15:05:59;;;;;;;1.17;1.08;;;21.10;55.40;;;;;;5796923;28;20051;-65
2022/12/08 15:09:15;;;;;;;1.00;0.90;;;21.10;38.80;;;;;;5798584;28;20043;-65
2022/12/08 15:12:21;;;;;;;1.00;0.90;;;21.20;38.60;;;;;;5867745;28;20157;-67
2022/12/08 15:15:29;;;;;;;1.00;0.82;;;20.90;38.50;;;;;;5829108;28;20059;-65
2022/12/08 15:18:37;;;;;;;0.82;0.80;;;21.20;38.80;;;;;;5845956;28;20051;-66
2022/12/08 15:21:39;;;;;;;1.00;0.80;;;21.00;38.80;;;;;;5791958;28;20050;-66
2022/12/08 15:24:41;;;;;;;;;;;21.30;39.30;;;;;;5844847;28;20046;-65
2022/12/08 15:27:43;;;;;;;1.08;0.80;;;20.70;39.50;;;;;;5806314;28;20112;-64
2022/12/08 15:30:52;;;;;;;1.10;0.98;;;20.80;38.80;;;;;;5807392;28;31938;-65
2022/12/08 15:33:54;;;;;;;1.10;1.00;;;21.30;39.00;;;;;;5776188;28;20035;-64
2022/12/08 15:36:55;;;;;;;;;;;21.40;38.90;;;;;;5792267;28;20054;-63
2022/12/08 15:39:57;;;;;;;1.08;0.88;;;21.30;39.40;;;;;;5802997;28;19937;-65
2022/12/08 15:42:59;;;;;;;0.82;0.75;;;21.00;39.10;;;;;;5791979;28;20055;-65
2022/12/08 15:46:01;;;;;;;1.17;0.98;;;20.80;38.70;;;;;;5819772;28;20460;-65
2022/12/08 15:49:02;;;;;;;1.17;0.95;;;21.20;39.20;;;;;;5822949;28;20075;-60
2022/12/08 15:52:05;;;;;;;;;;;21.40;39.10;;;;;;5823880;28;20043;-62
2022/12/08 15:55:15;;;;;;;1.73;1.20;;;21.50;39.40;;;;;;5806258;28;20076;-66
2022/12/08 15:58:19;;;;;;;1.20;1.10;;;20.70;39.30;;;;;;5827159;28;21655;-62
2022/12/08 16:01:41;;;;;;;1.33;1.00;;;21.30;39.20;;;;;;5750751;28;20404;-63
2022/12/08 16:04:42;;;;;;;;;;;21.20;39.60;;;;;;5768544;28;20738;-63
2022/12/08 16:08:05;;;;;;;1.13;1.02;;;21.20;39.50;;;;;;5868735;23;22612;-64
2022/12/08 16:15:00;;;;;;;1.20;1.10;;;20.80;39.10;;;;;;5731994;28;20645;-64
2022/12/08 16:18:26;;;;;;;1.02;0.90;;;20.90;39.50;;;;;;5809319;28;20048;-65
2022/12/08 16:21:29;;;;;;;1.00;0.90;;;21.10;39.30;;;;;;5817344;28;23491;-63
2022/12/08 16:24:50;;;;;;;1.13;0.80;;;21.00;39.40;;;;;;5784210;28;20043;-64
2022/12/08 16:27:54;;;;;;;0.98;0.80;;;21.20;39.50;;;;;;5789834;28;26498;-63
2022/12/08 16:31:16;;;;;;;0.80;0.70;;;21.00;39.60;;;;;;5733480;28;20031;-63